Time;durP1;ratioP1;P1;durP2;ratioP2;P2;SDS_P1;SDS_P2;PMS_P1;PMS_P2;Temp;Humidity;BMP_temperature;BMP_pressure;BME280_temperature;BME280_humidity;BME280_pressure;Samples;Min_cycle;Max_cycle;Signal;HPM_P1;HPM_P2
2022/08/13 00:00:09;;;;;;;0.20;0.20;;;;;;;19.49;51.43;101190.66;5087792;28;20051;-66
2022/08/13 00:02:34;;;;;;;0.20;0.20;;;;;;;19.36;51.87;101198.09;5087772;28;20024;-66
2022/08/13 00:04:59;;;;;;;0.20;0.20;;;;;;;19.26;52.91;101208.06;5087607;28;20084;-67
2022/08/13 00:07:29;;;;;;;0.20;0.20;;;;;;;19.14;54.09;101201.38;5087563;28;20024;-66
2022/08/13 00:09:56;;;;;;;0.30;0.30;;;;;;;18.97;55.08;101201.91;5087507;28;20100;-66
2022/08/13 00:15:30;;;;;;;0.95;0.95;;;;;;;18.61;56.56;101200.34;5087584;28;20036;-66
2022/08/13 00:17:59;;;;;;;0.30;0.30;;;;;;;18.64;56.51;101200.25;5087607;28;20031;-65
2022/08/13 00:20:32;;;;;;;0.20;0.20;;;;;;;18.77;56.17;101201.59;5087424;28;20035;-65
2022/08/13 00:22:58;;;;;;;0.30;0.30;;;;;;;18.83;56.04;101203.19;5087275;28;20070;-65
2022/08/13 00:25:24;;;;;;;0.20;0.20;;;;;;;18.89;55.52;101199.50;5069310;28;20418;-65
2022/08/13 00:27:56;;;;;;;0.20;0.20;;;;;;;18.98;55.01;101195.75;5087400;28;20085;-65
2022/08/13 00:30:23;;;;;;;0.30;0.30;;;;;;;19.00;54.82;101199.16;5087375;28;20020;-66
2022/08/13 00:32:49;;;;;;;0.20;0.20;;;;;;;18.95;55.23;101196.69;5087302;28;20048;-65
2022/08/13 00:35:14;;;;;;;0.63;0.63;;;;;;;18.92;55.42;101195.03;5086988;28;20082;-65
2022/08/13 00:37:41;;;;;;;0.30;0.30;;;;;;;18.91;55.24;101185.38;5087109;28;20498;-65
2022/08/13 00:40:11;;;;;;;1.08;0.75;;;;;;;18.97;55.00;101191.38;5087086;28;20032;-65
2022/08/13 00:42:37;;;;;;;0.20;0.20;;;;;;;19.03;54.91;101191.19;5078961;28;20039;-65
2022/08/13 00:45:05;;;;;;;0.40;0.40;;;;;;;19.05;55.27;101192.00;5086880;28;20046;-66
2022/08/13 00:50:15;;;;;;;0.20;0.20;;;;;;;18.95;55.77;101191.41;5086985;28;20028;-65
2022/08/13 00:52:41;;;;;;;0.20;0.20;;;;;;;18.86;55.97;101186.44;5086801;28;20020;-66
2022/08/13 00:55:15;;;;;;;0.20;0.20;;;;;;;18.75;56.12;101185.03;5086455;28;20127;-65
2022/08/13 00:57:41;;;;;;;0.30;0.30;;;;;;;18.76;56.40;101194.63;5086703;28;20021;-65
2022/08/13 01:00:13;;;;;;;0.20;0.20;;;;;;;18.80;56.37;101184.88;5086576;28;20029;-65
2022/08/13 01:02:46;;;;;;;;;;;;;;;18.89;56.44;101189.84;5087151;28;20036;-65
2022/08/13 01:05:12;;;;;;;0.20;0.20;;;;;;;18.75;56.77;101192.91;5086540;28;19931;-65
2022/08/13 01:07:43;;;;;;;0.20;0.20;;;;;;;18.58;57.25;101190.78;5086181;28;20032;-66
2022/08/13 01:10:10;;;;;;;0.20;0.20;;;;;;;18.46;57.63;101186.75;5068657;28;20025;-66
2022/08/13 01:12:38;;;;;;;0.20;0.20;;;;;;;18.49;57.74;101186.66;5086545;28;20046;-66
2022/08/13 01:15:12;;;;;;;0.20;0.20;;;;;;;18.55;57.53;101193.50;5068465;28;20043;-66
2022/08/13 01:17:39;;;;;;;0.50;0.50;;;;;;;18.57;57.79;101195.19;5086524;28;20025;-66
2022/08/13 01:20:07;;;;;;;0.20;0.20;;;;;;;18.50;57.75;101188.38;5086296;28;20084;-66
2022/08/13 01:22:33;;;;;;;0.30;0.30;;;;;;;18.45;57.93;101191.13;5086351;28;20048;-66
2022/08/13 01:25:00;;;;;;;0.22;0.22;;;;;;;18.42;58.06;101185.09;5086126;28;20502;-67
2022/08/13 01:27:26;;;;;;;0.20;0.20;;;;;;;18.42;58.29;101185.09;5085945;28;20110;-66
2022/08/13 01:29:52;;;;;;;0.20;0.20;;;;;;;18.40;58.66;101189.56;5086037;28;20025;-66
2022/08/13 01:32:21;;;;;;;0.20;0.20;;;;;;;18.39;58.75;101185.19;5086055;28;20020;-66
2022/08/13 01:34:48;;;;;;;0.20;0.20;;;;;;;18.40;58.58;101186.94;5067945;28;20031;-67
2022/08/13 01:37:14;;;;;;;0.35;0.35;;;;;;;18.49;58.63;101191.91;5086160;28;20032;-66
2022/08/13 01:39:40;;;;;;;0.22;0.22;;;;;;;18.49;59.06;101191.03;5085669;28;20104;-66
2022/08/13 01:42:20;;;;;;;0.20;0.20;;;;;;;18.43;59.34;101189.47;5085913;28;20047;-66
2022/08/13 01:44:48;;;;;;;0.20;0.20;;;;;;;18.41;59.63;101193.91;5085583;28;20146;-66
2022/08/13 01:53:08;;;;;;;0.40;0.40;;;;;;;18.31;60.47;101199.44;5023570;28;20030;-65
2022/08/13 01:55:38;;;;;;;0.20;0.20;;;;;;;18.43;60.04;101192.97;5007037;28;20054;-66
2022/08/13 01:58:06;;;;;;;0.20;0.20;;;;;;;18.52;60.17;101190.94;5023473;28;20260;-66
2022/08/13 02:00:32;;;;;;;0.20;0.20;;;;;;;18.54;59.93;101186.53;5023658;28;20034;-66
2022/08/13 02:03:01;;;;;;;0.30;0.30;;;;;;;18.52;60.32;101189.19;5023586;28;20041;-66
2022/08/13 02:05:27;;;;;;;0.20;0.20;;;;;;;18.47;60.59;101182.38;5023329;28;20041;-66
2022/08/13 02:07:53;;;;;;;0.20;0.20;;;;;;;18.51;60.56;101191.88;5006932;28;20026;-65
2022/08/13 02:10:22;;;;;;;0.20;0.20;;;;;;;18.59;60.53;101192.50;5023445;28;20077;-66
2022/08/13 02:12:48;;;;;;;0.20;0.20;;;;;;;18.68;60.43;101191.38;5023491;28;20052;-66
2022/08/13 02:15:15;;;;;;;0.20;0.20;;;;;;;18.69;60.14;101191.31;5023774;28;20537;-66
2022/08/13 02:17:41;;;;;;;0.20;0.20;;;;;;;18.65;60.25;101191.44;5023407;28;20090;-67
2022/08/13 02:20:12;;;;;;;0.20;0.20;;;;;;;18.61;60.45;101189.84;5023340;28;20026;-66
2022/08/13 02:22:40;;;;;;;0.30;0.30;;;;;;;18.67;60.47;101184.38;5025255;28;20117;-65
2022/08/13 02:25:06;;;;;;;1.17;0.75;;;;;;;18.79;60.76;101183.13;5085580;28;20024;-66
2022/08/13 02:27:31;;;;;;;0.20;0.20;;;;;;;18.91;60.45;101181.91;5085413;28;20476;-66
2022/08/13 02:29:59;;;;;;;0.20;0.20;;;;;;;18.95;60.11;101178.28;5085406;28;20079;-66
2022/08/13 02:32:25;;;;;;;0.20;0.20;;;;;;;18.94;59.86;101179.19;5085396;28;20036;-65
2022/08/13 02:34:52;;;;;;;0.20;0.20;;;;;;;18.97;60.10;101176.47;5085276;28;20020;-66
2022/08/13 02:37:21;;;;;;;0.20;0.20;;;;;;;18.98;60.11;101180.81;5085437;28;20053;-66
2022/08/13 02:39:51;;;;;;;0.20;0.20;;;;;;;18.86;59.94;101173.31;5084873;28;20022;-66
2022/08/13 02:42:18;;;;;;;0.20;0.20;;;;;;;18.74;60.07;101185.91;5085139;28;20031;-66
2022/08/13 02:44:49;;;;;;;0.20;0.20;;;;;;;18.67;60.66;101181.75;5085271;28;20048;-66
2022/08/13 02:47:22;;;;;;;0.20;0.20;;;;;;;18.56;60.76;101174.19;5085204;28;20029;-66
2022/08/13 02:49:51;;;;;;;0.20;0.20;;;;;;;18.51;61.49;101179.59;5067011;28;20027;-66
2022/08/13 02:52:19;;;;;;;0.20;0.20;;;;;;;18.48;61.65;101184.06;5066633;28;20111;-66
2022/08/13 02:54:47;;;;;;;0.20;0.20;;;;;;;18.48;61.74;101177.06;5084725;28;20052;-66
2022/08/13 02:57:13;;;;;;;0.20;0.20;;;;;;;18.47;62.12;101177.94;5086789;28;20017;-66
2022/08/13 02:59:41;;;;;;;0.20;0.20;;;;;;;18.46;62.23;101184.13;5089023;28;20028;-65
2022/08/13 03:02:08;;;;;;;0.20;0.20;;;;;;;18.44;61.79;101185.91;5088909;28;20356;-66
2022/08/13 03:04:34;;;;;;;0.40;0.40;;;;;;;18.39;62.23;101172.91;5089089;28;20029;-65
2022/08/13 03:07:00;;;;;;;0.20;0.20;;;;;;;18.36;62.50;101185.28;5088805;28;20024;-66
2022/08/13 03:09:27;;;;;;;0.32;0.32;;;;;;;18.32;62.61;101180.09;5088768;28;20091;-65
2022/08/13 03:11:53;;;;;;;0.20;0.20;;;;;;;18.26;62.94;101177.66;5088758;28;20025;-66
2022/08/13 03:14:20;;;;;;;0.60;0.60;;;;;;;18.22;63.19;101173.41;5088725;28;20029;-66
2022/08/13 03:16:46;;;;;;;0.20;0.20;;;;;;;18.20;63.44;101170.81;5088637;28;20472;-66
2022/08/13 03:19:11;;;;;;;1.38;1.17;;;;;;;18.21;63.57;101171.69;5070593;28;20039;-66
2022/08/13 03:21:39;;;;;;;0.20;0.20;;;;;;;18.12;63.87;101157.03;5088495;28;20025;-66
2022/08/13 03:24:07;;;;;;;0.40;0.40;;;;;;;18.20;63.94;101172.56;5088424;28;20080;-66
2022/08/13 03:26:34;;;;;;;0.73;0.73;;;;;;;18.18;64.37;101174.38;5088343;28;20032;-66
2022/08/13 03:29:01;;;;;;;0.20;0.20;;;;;;;18.12;64.70;101166.66;5088375;28;20048;-66
2022/08/13 03:31:28;;;;;;;0.20;0.20;;;;;;;18.08;64.78;101166.72;5088386;28;20058;-66
2022/08/13 03:33:54;;;;;;;0.20;0.20;;;;;;;18.03;64.95;101166.00;5070245;28;20024;-66
2022/08/13 03:36:21;;;;;;;0.20;0.20;;;;;;;18.04;65.07;101165.09;5088303;28;20024;-65
2022/08/13 03:38:47;;;;;;;0.20;0.20;;;;;;;17.98;65.22;101170.53;5069992;28;20040;-65
2022/08/13 03:41:14;;;;;;;0.28;0.28;;;;;;;17.95;65.67;101168.00;5088207;28;20035;-66
2022/08/13 03:43:47;;;;;;;0.88;0.88;;;;;;;17.91;65.83;101163.69;5088312;28;20052;-65
2022/08/13 03:46:14;;;;;;;0.20;0.20;;;;;;;17.90;66.23;101162.00;5088035;28;20029;-65
2022/08/13 03:48:39;;;;;;;0.38;0.38;;;;;;;17.92;66.22;101161.03;5088178;28;20033;-66
2022/08/13 03:51:08;;;;;;;0.20;0.20;;;;;;;17.95;66.35;101160.09;5087956;28;20038;-66
2022/08/13 03:53:34;;;;;;;0.20;0.20;;;;;;;17.99;66.67;101160.88;5087911;28;20051;-65
2022/08/13 03:56:00;;;;;;;0.38;0.38;;;;;;;17.99;66.63;101148.59;5087698;28;20045;-65
2022/08/13 03:58:28;;;;;;;0.20;0.20;;;;;;;18.09;66.86;101157.97;5087800;28;20048;-66
2022/08/13 04:00:54;;;;;;;0.20;0.20;;;;;;;18.19;66.85;101170.88;5088021;28;20032;-66
2022/08/13 04:03:29;;;;;;;0.28;0.28;;;;;;;18.25;66.93;101172.44;5087843;28;20031;-65
2022/08/13 04:05:56;;;;;;;0.20;0.20;;;;;;;18.23;66.89;101172.50;5087855;28;20032;-65
2022/08/13 04:08:21;;;;;;;0.40;0.40;;;;;;;18.27;66.92;101170.66;5086916;28;20025;-65
2022/08/13 04:10:48;;;;;;;0.30;0.30;;;;;;;18.41;66.89;101176.38;5087711;28;20024;-63
2022/08/13 04:13:19;;;;;;;0.20;0.20;;;;;;;18.56;66.78;101168.94;5069319;28;20020;-64
2022/08/13 04:15:45;;;;;;;0.20;0.20;;;;;;;18.70;66.34;101173.78;5087653;28;20025;-64
2022/08/13 04:18:14;;;;;;;0.20;0.20;;;;;;;18.75;65.89;101171.00;5087478;28;20021;-64
2022/08/13 04:20:54;;;;;;;0.40;0.40;;;;;;;18.74;65.92;101164.88;5087453;28;20024;-64
2022/08/13 04:23:21;;;;;;;0.50;0.50;;;;;;;18.82;65.95;101168.13;5087418;28;20480;-65
2022/08/13 04:25:49;;;;;;;0.20;0.20;;;;;;;18.95;65.67;101165.97;5087306;28;20048;-65
2022/08/13 04:28:16;;;;;;;0.20;0.20;;;;;;;19.13;65.63;101170.72;5087441;28;20020;-64
2022/08/13 04:30:43;;;;;;;1.25;0.73;;;;;;;19.34;65.31;101165.69;5087290;28;20066;-64
2022/08/13 04:33:11;;;;;;;0.20;0.20;;;;;;;19.61;64.85;101166.53;5087298;28;20028;-65
2022/08/13 04:35:38;;;;;;;0.40;0.40;;;;;;;19.90;64.11;101161.16;5087227;28;20028;-65
2022/08/13 04:38:05;;;;;;;0.28;0.28;;;;;;;20.17;63.44;101158.44;5087365;28;20020;-65
2022/08/13 04:40:35;;;;;;;0.38;0.38;;;;;;;20.52;63.33;101169.44;5087021;28;20032;-65
2022/08/13 04:43:01;;;;;;;0.10;0.10;;;;;;;20.87;62.02;101169.00;5087083;28;20154;-65
2022/08/13 04:45:28;;;;;;;0.20;0.20;;;;;;;21.17;60.80;101166.06;5086798;28;20452;-65
2022/08/13 04:47:58;;;;;;;0.20;0.20;;;;;;;21.32;60.11;101171.63;5086957;28;20033;-65
2022/08/13 04:50:25;;;;;;;0.28;0.28;;;;;;;21.47;59.58;101164.81;5087011;28;20028;-65
2022/08/13 04:52:51;;;;;;;0.20;0.20;;;;;;;21.62;58.64;101165.09;5086755;28;20021;-65
2022/08/13 04:55:17;;;;;;;0.20;0.20;;;;;;;21.72;58.34;101173.50;5086698;28;20075;-64
2022/08/13 04:57:43;;;;;;;0.20;0.20;;;;;;;21.83;58.10;101167.75;5086858;28;20036;-65
2022/08/13 05:00:10;;;;;;;0.22;0.22;;;;;;;22.00;57.26;101165.25;5086707;28;20081;-65
2022/08/13 05:02:39;;;;;;;0.20;0.20;;;;;;;22.08;56.76;101151.66;5086785;28;20115;-65
2022/08/13 05:05:06;;;;;;;0.20;0.20;;;;;;;22.17;56.46;101164.47;5086552;28;20084;-65
2022/08/13 05:07:31;;;;;;;0.20;0.20;;;;;;;22.27;56.34;101159.63;5086321;28;20025;-65
2022/08/13 05:09:56;;;;;;;0.20;0.20;;;;;;;22.42;55.46;101159.84;5086516;28;20027;-65
2022/08/13 05:12:22;;;;;;;0.20;0.20;;;;;;;22.57;54.97;101160.06;5086479;28;20028;-65
2022/08/13 05:14:47;;;;;;;1.38;1.27;;;;;;;22.67;54.71;101158.72;5086127;28;20020;-65
2022/08/13 05:17:12;;;;;;;0.20;0.20;;;;;;;22.79;54.24;101162.56;5086359;28;20460;-65
2022/08/13 05:19:38;;;;;;;0.25;0.25;;;;;;;22.83;54.25;101160.63;5085814;28;20031;-65
2022/08/13 05:22:03;;;;;;;2.03;1.02;;;;;;;22.83;54.06;101152.69;5085611;28;20025;-65
2022/08/13 05:24:29;;;;;;;0.20;0.20;;;;;;;22.93;54.22;101153.09;5085925;28;20511;-65
2022/08/13 05:26:55;;;;;;;0.17;0.17;;;;;;;22.97;53.38;101152.84;5085937;28;20048;-64
2022/08/13 05:29:20;;;;;;;0.20;0.20;;;;;;;22.80;53.26;101151.03;5085949;28;20021;-65
2022/08/13 05:31:46;;;;;;;0.20;0.20;;;;;;;22.78;53.26;101156.41;5086019;28;20028;-65
2022/08/13 05:34:12;;;;;;;0.20;0.20;;;;;;;22.77;53.61;101153.84;5085999;28;20098;-64
2022/08/13 05:36:43;;;;;;;0.95;0.95;;;;;;;22.83;53.44;101147.41;5085995;28;20032;-64
2022/08/13 05:39:09;;;;;;;0.20;0.20;;;;;;;22.70;53.13;101152.44;5085913;28;20054;-64
2022/08/13 05:41:34;;;;;;;0.40;0.40;;;;;;;22.61;53.20;101144.00;5085629;28;20060;-65
2022/08/13 05:44:00;;;;;;;0.20;0.20;;;;;;;22.57;53.29;101146.81;5085785;28;20035;-65
2022/08/13 05:46:25;;;;;;;0.20;0.20;;;;;;;22.60;53.50;101152.00;5084393;22;20063;-73
2022/08/13 05:48:57;;;;;;;0.25;0.25;;;;;;;22.68;53.38;101144.56;5056734;28;20041;-72
2022/08/13 05:51:33;;;;;;;0.38;0.38;;;;;;;22.82;52.98;101146.53;5064346;28;20468;-73
2022/08/13 05:54:01;;;;;;;0.30;0.30;;;;;;;22.99;52.76;101148.34;5062955;28;20117;-73
2022/08/13 05:56:38;;;;;;;0.20;0.20;;;;;;;23.28;52.90;101142.53;5064313;28;20021;-73
2022/08/13 06:03:22;;;;;;;0.10;0.10;;;;;;;23.56;52.52;101142.94;5064589;28;20017;-73
2022/08/13 06:04:41;;;;;;;0.20;0.20;;;;;;;24.08;50.86;101143.75;5064397;28;20056;-73
2022/08/13 06:07:13;;;;;;;0.30;0.30;;;;;;;24.33;50.96;101142.47;5064099;28;20025;-73
2022/08/13 06:09:38;;;;;;;1.58;1.48;;;;;;;24.73;50.40;101147.31;5062817;28;20090;-72
2022/08/13 06:12:04;;;;;;;0.40;0.40;;;;;;;25.08;49.64;101147.13;5062836;28;20096;-73
2022/08/13 06:14:35;;;;;;;0.40;0.40;;;;;;;25.52;49.50;101138.41;5064010;28;20037;-73
2022/08/13 06:17:02;;;;;;;0.43;0.43;;;;;;;26.26;49.87;101138.34;5062626;28;20013;-73
2022/08/13 06:19:32;;;;;;;4.05;0.85;;;;;;;27.06;49.12;101135.94;5062969;28;20093;-73
2022/08/13 06:22:04;;;;;;;0.32;0.32;;;;;;;27.83;48.34;101136.94;5063975;28;20074;-73
2022/08/13 06:24:32;;;;;;;0.13;0.13;;;;;;;28.27;46.68;101132.09;5062833;28;20031;-73
2022/08/13 06:27:00;;;;;;;0.20;0.20;;;;;;;28.16;45.68;101134.66;5063833;28;20017;-74
2022/08/13 06:29:28;;;;;;;0.10;0.10;;;;;;;27.89;45.58;101122.34;5062581;28;20400;-73
2022/08/13 06:31:55;;;;;;;0.10;0.10;;;;;;;28.08;45.84;101121.88;5066468;28;20435;-73
2022/08/13 06:34:22;;;;;;;0.10;0.10;;;;;;;28.62;46.20;101133.16;5069411;28;20080;-73
2022/08/13 06:36:48;;;;;;;0.10;0.10;;;;;;;29.30;45.63;101129.88;5070300;28;20036;-73
2022/08/13 06:39:15;;;;;;;0.17;0.17;;;;;;;30.14;45.10;101117.16;5070321;28;20024;-73
2022/08/13 06:41:42;;;;;;;0.32;0.32;;;;;;;30.86;43.98;101124.78;5069323;28;20031;-73
2022/08/13 06:44:08;;;;;;;0.10;0.10;;;;;;;31.34;44.01;101135.13;5069232;28;20029;-73
2022/08/13 06:46:34;;;;;;;0.10;0.10;;;;;;;31.74;43.16;101120.09;5070157;28;20716;-73
2022/08/13 06:49:01;;;;;;;0.35;0.35;;;;;;;32.06;41.82;101118.25;5070355;28;20029;-72
2022/08/13 06:51:27;;;;;;;0.10;0.10;;;;;;;32.17;41.43;101118.13;5070466;28;20088;-73
2022/08/13 06:53:54;;;;;;;0.98;0.73;;;;;;;31.85;41.02;101124.50;5069921;28;20029;-73
2022/08/13 06:56:22;;;;;;;0.10;0.10;;;;;;;31.47;41.35;101118.84;5069109;28;20013;-73
2022/08/13 06:58:50;;;;;;;0.10;0.10;;;;;;;31.19;41.44;101115.81;5070291;28;20541;-72
2022/08/13 07:01:22;;;;;;;0.10;0.10;;;;;;;31.23;41.99;101119.94;5068744;28;20031;-72
2022/08/13 07:03:48;;;;;;;0.20;0.20;;;;;;;31.37;41.74;101116.06;5070181;28;20483;-73
2022/08/13 07:06:18;;;;;;;0.32;0.32;;;;;;;31.40;41.06;101116.69;5070023;28;20033;-69
2022/08/13 07:08:45;;;;;;;0.10;0.10;;;;;;;31.74;41.46;101118.22;5069610;28;20476;-73
2022/08/13 07:11:22;;;;;;;0.10;0.10;;;;;;;31.89;40.71;101116.03;5068608;28;20036;-72
2022/08/13 07:13:51;;;;;;;0.10;0.10;;;;;;;31.85;40.48;101111.09;5070036;28;20025;-73
2022/08/13 07:16:19;;;;;;;0.50;0.50;;;;;;;31.91;40.08;101115.91;5070165;28;20042;-70
2022/08/13 07:18:47;;;;;;;0.20;0.20;;;;;;;32.03;39.74;101117.50;5069758;28;20047;-70
2022/08/13 07:21:14;;;;;;;0.38;0.38;;;;;;;32.36;39.81;101122.69;5070030;28;20025;-70
2022/08/13 07:23:42;;;;;;;0.10;0.10;;;;;;;32.71;39.49;101114.22;5068461;28;20031;-70
2022/08/13 07:26:09;;;;;;;0.10;0.10;;;;;;;32.84;39.30;101120.19;5068578;28;20017;-70
2022/08/13 07:28:35;;;;;;;0.10;0.10;;;;;;;33.00;38.57;101127.66;5069751;28;20372;-70
2022/08/13 07:31:05;;;;;;;0.10;0.10;;;;;;;33.30;37.91;101122.25;5069808;28;20431;-71
2022/08/13 07:33:34;;;;;;;0.10;0.10;;;;;;;33.44;36.46;101128.13;5068481;28;20013;-74
2022/08/13 07:36:04;;;;;;;0.17;0.17;;;;;;;33.85;37.40;101117.94;5069695;28;20060;-75
2022/08/13 07:38:31;;;;;;;0.32;0.32;;;;;;;34.11;37.08;101124.44;5069161;28;20051;-77
2022/08/13 07:40:59;;;;;;;0.10;0.10;;;;;;;34.07;36.67;101121.22;5069736;28;20484;-71
2022/08/13 07:43:26;;;;;;;0.40;0.40;;;;;;;34.22;36.17;101115.34;5065991;28;20036;-70
2022/08/13 07:46:07;;;;;;;0.10;0.10;;;;;;;34.42;36.29;101118.75;5066029;28;20037;-73
2022/08/13 07:48:34;;;;;;;0.10;0.10;;;;;;;34.52;34.99;101115.13;5066636;28;20033;-74
2022/08/13 07:51:02;;;;;;;0.10;0.10;;;;;;;34.77;35.33;101121.59;5065023;28;20029;-69
2022/08/13 07:53:28;;;;;;;0.20;0.20;;;;;;;34.92;35.04;101119.16;5066228;28;20082;-73
2022/08/13 07:55:55;;;;;;;0.03;0.03;;;;;;;34.94;34.17;101122.56;5065182;28;20045;-68
2022/08/13 07:58:23;;;;;;;0.65;0.65;;;;;;;35.20;33.91;101121.78;5065891;28;20032;-70
2022/08/13 08:00:48;;;;;;;0.10;0.10;;;;;;;35.39;32.42;101119.84;5066354;28;20020;-68
2022/08/13 08:03:14;;;;;;;0.15;0.15;;;;;;;35.52;31.67;101119.41;5066209;28;20024;-70
2022/08/13 08:05:42;;;;;;;0.10;0.10;;;;;;;35.70;30.97;101123.88;5066173;28;20024;-76
2022/08/13 08:08:10;;;;;;;0.13;0.13;;;;;;;36.24;31.23;101119.19;5065803;28;20511;-68
2022/08/13 08:10:40;;;;;;;0.10;0.10;;;;;;;36.76;31.28;101122.66;5066152;28;20024;-69
2022/08/13 08:13:08;;;;;;;0.10;0.10;;;;;;;36.83;31.02;101124.50;5066072;28;20051;-69
2022/08/13 08:15:35;;;;;;;0.10;0.10;;;;;;;36.76;30.69;101123.47;5066086;28;20052;-68
2022/08/13 08:18:01;;;;;;;0.30;0.30;;;;;;;36.53;30.90;101124.13;5066028;28;20426;-68
2022/08/13 08:20:27;;;;;;;0.25;0.25;;;;;;;36.12;31.12;101130.28;5066128;28;20028;-68
2022/08/13 08:22:52;;;;;;;2.28;2.08;;;;;;;36.11;31.22;101128.59;5065918;28;20025;-68
2022/08/13 08:25:19;;;;;;;0.05;0.05;;;;;;;36.25;31.14;101132.53;5065843;28;20370;-68
2022/08/13 08:27:45;;;;;;;0.75;0.75;;;;;;;36.16;30.19;101122.69;5065865;28;20025;-68
2022/08/13 08:30:19;;;;;;;0.43;0.30;;;;;;;36.38;28.87;101131.19;5065880;28;20037;-69
2022/08/13 08:32:51;;;;;;;0.10;0.10;;;;;;;36.51;27.78;101128.84;5065870;28;20040;-71
2022/08/13 08:35:17;;;;;;;0.13;0.13;;;;;;;36.68;28.46;101134.28;5065883;28;20112;-70
2022/08/13 08:43:13;;;;;;;0.30;0.30;;;;;;;37.39;27.44;101133.72;5066077;28;20383;-67
2022/08/13 08:45:40;;;;;;;0.10;0.10;;;;;;;37.48;27.24;101136.41;5065577;28;20041;-67
2022/08/13 08:48:06;;;;;;;0.10;0.10;;;;;;;37.67;27.40;101133.25;5065756;28;20028;-67
2022/08/13 08:50:33;;;;;;;0.30;0.30;;;;;;;37.69;26.41;101139.34;5065696;28;20047;-68
2022/08/13 08:53:19;;;;;;;0.63;0.63;;;;;;;37.66;26.64;101138.84;5065655;28;20036;-68
2022/08/13 08:55:45;;;;;;;0.10;0.10;;;;;;;37.70;26.58;101134.78;5065053;28;20056;-68
2022/08/13 08:58:12;;;;;;;0.32;0.32;;;;;;;37.69;25.88;101139.34;5064803;28;20020;-67
2022/08/13 09:00:39;;;;;;;0.10;0.10;;;;;;;37.62;25.79;101138.38;5065266;28;20025;-68
2022/08/13 09:03:07;;;;;;;1.00;0.55;;;;;;;37.64;26.14;101143.63;5065458;28;20094;-68
2022/08/13 09:05:33;;;;;;;0.10;0.10;;;;;;;37.76;25.82;101150.38;5065206;28;20025;-68
2022/08/13 09:08:02;;;;;;;0.10;0.10;;;;;;;38.03;25.85;101144.63;5065402;28;20032;-68
2022/08/13 09:10:33;;;;;;;0.10;0.10;;;;;;;38.05;24.94;101143.44;5065216;28;20025;-68
2022/08/13 09:13:03;;;;;;;0.10;0.10;;;;;;;38.16;25.65;101138.63;5064339;28;20032;-69
2022/08/13 09:15:30;;;;;;;0.73;0.73;;;;;;;38.31;25.17;101147.72;5063619;28;20053;-69
2022/08/13 09:17:57;;;;;;;0.10;0.10;;;;;;;38.21;24.33;101140.84;5065071;28;20021;-69
2022/08/13 09:20:25;;;;;;;0.10;0.10;;;;;;;37.92;24.66;101148.59;5065135;28;20096;-69
2022/08/13 09:23:21;;;;;;;0.28;0.28;;;;;;;38.28;25.09;101136.38;5065249;28;20108;-68
2022/08/13 09:25:51;;;;;;;0.10;0.10;;;;;;;38.32;23.35;101143.13;5048005;28;20044;-68
2022/08/13 09:28:23;;;;;;;0.10;0.10;;;;;;;38.25;23.70;101143.00;5064990;28;20096;-69
2022/08/13 09:30:50;;;;;;;0.10;0.10;;;;;;;38.09;23.35;101140.38;5064714;28;20133;-67
2022/08/13 09:33:21;;;;;;;0.10;0.10;;;;;;;38.33;23.59;101142.09;5063543;28;20047;-68
2022/08/13 09:35:48;;;;;;;0.10;0.10;;;;;;;38.27;23.15;101146.41;5065097;28;20017;-68
2022/08/13 09:38:15;;;;;;;0.10;0.10;;;;;;;38.48;22.88;101146.75;5064744;28;20082;-68
2022/08/13 09:41:06;;;;;;;0.32;0.32;;;;;;;38.51;22.08;101141.81;5064451;28;20445;-68
2022/08/13 09:43:40;;;;;;;0.10;0.10;;;;;;;38.61;22.17;101144.28;5055754;28;20041;-68
2022/08/13 09:46:09;;;;;;;0.10;0.10;;;;;;;38.45;21.54;101147.13;5064161;28;20033;-69
2022/08/13 09:48:37;;;;;;;0.10;0.10;;;;;;;38.41;21.82;101141.19;5062998;28;20017;-68
2022/08/13 09:51:03;;;;;;;0.10;0.10;;;;;;;38.45;21.41;101141.69;5064684;28;20575;-68
2022/08/13 09:53:29;;;;;;;0.20;0.20;;;;;;;38.57;20.25;101144.84;5064007;28;20049;-69
2022/08/13 09:55:55;;;;;;;0.10;0.10;;;;;;;38.23;19.87;101145.03;5064563;28;20025;-68
2022/08/13 09:58:22;;;;;;;0.10;0.10;;;;;;;37.92;19.63;101149.44;5064260;28;20523;-69
2022/08/13 10:00:48;;;;;;;0.10;0.10;;;;;;;37.84;20.26;101145.91;5063028;28;20052;-69
2022/08/13 10:03:14;;;;;;;0.10;0.10;;;;;;;38.20;20.15;101140.00;5064498;28;20036;-69
2022/08/13 10:05:39;;;;;;;0.10;0.10;;;;;;;37.93;19.74;101144.84;5062669;28;20054;-69
2022/08/13 10:08:12;;;;;;;0.10;0.10;;;;;;;37.91;20.21;101144.22;5063608;28;20044;-69
2022/08/13 10:10:38;;;;;;;0.30;0.30;;;;;;;37.84;20.45;101145.91;5064121;28;20017;-69
2022/08/13 10:13:04;;;;;;;0.10;0.10;;;;;;;37.79;19.81;101144.59;5064177;28;20035;-70
2022/08/13 10:15:30;;;;;;;0.10;0.10;;;;;;;37.49;20.22;101136.22;5063002;28;20035;-69
2022/08/13 10:17:57;;;;;;;0.90;0.90;;;;;;;37.20;20.42;101134.91;5063828;28;20025;-70
2022/08/13 10:20:33;;;;;;;0.10;0.10;;;;;;;36.93;20.59;101143.25;5064150;28;20025;-69
2022/08/13 10:23:00;;;;;;;0.70;0.70;;;;;;;36.94;21.42;101141.38;5063897;28;20024;-70
2022/08/13 10:25:28;;;;;;;0.10;0.10;;;;;;;36.98;20.75;101147.31;5063959;28;20473;-70
2022/08/13 10:27:53;;;;;;;0.10;0.10;;;;;;;36.98;20.49;101140.03;5063653;28;20120;-70
2022/08/13 10:30:22;;;;;;;0.10;0.10;;;;;;;36.86;20.39;101138.66;5063977;28;20139;-70
2022/08/13 10:32:47;;;;;;;0.10;0.10;;;;;;;36.76;20.64;101134.28;5063696;28;20028;-69
2022/08/13 10:35:15;;;;;;;0.10;0.10;;;;;;;36.66;20.20;101136.31;5063875;28;20021;-72
2022/08/13 10:37:53;;;;;;;0.10;0.10;;;;;;;36.45;19.89;101133.09;5063818;28;20036;-73
2022/08/13 10:40:20;;;;;;;0.10;0.10;;;;;;;36.58;20.00;101126.31;5063680;28;20021;-70
2022/08/13 10:42:45;;;;;;;0.10;0.10;;;;;;;36.65;18.96;101135.44;5062351;28;20031;-70
2022/08/13 10:45:13;;;;;;;0.10;0.10;;;;;;;36.37;19.18;101129.50;5064409;28;20449;-71
2022/08/13 10:47:49;;;;;;;0.10;0.10;;;;;;;36.19;19.57;101119.66;5065498;28;20024;-71
2022/08/13 10:50:18;;;;;;;0.20;0.20;;;;;;;36.30;19.71;101129.31;5083868;28;20028;-70
2022/08/13 10:52:43;;;;;;;0.10;0.10;;;;;;;36.18;19.03;101124.22;5083609;28;20080;-68
2022/08/13 10:55:13;;;;;;;0.10;0.10;;;;;;;35.88;19.24;101131.06;5083398;28;20024;-69
2022/08/13 10:57:44;;;;;;;0.10;0.10;;;;;;;35.85;19.41;101124.97;5083546;28;20021;-68
2022/08/13 11:00:14;;;;;;;0.10;0.10;;;;;;;35.92;19.41;101124.31;5083536;28;20086;-69
2022/08/13 11:02:40;;;;;;;0.15;0.15;;;;;;;36.00;19.54;101127.03;5083533;28;20108;-67
2022/08/13 11:05:08;;;;;;;0.63;0.63;;;;;;;35.89;19.02;101124.63;5083467;28;20029;-69
2022/08/13 11:07:36;;;;;;;0.30;0.30;;;;;;;35.53;19.53;101121.09;5083239;28;20066;-70
2022/08/13 11:10:04;;;;;;;0.10;0.10;;;;;;;34.98;19.73;101120.41;5083242;28;20032;-73
2022/08/13 11:12:30;;;;;;;0.30;0.30;;;;;;;34.27;19.84;101120.28;5083553;28;20412;-72
2022/08/13 11:14:55;;;;;;;0.10;0.10;;;;;;;33.79;20.82;101120.38;5083393;28;20021;-72
2022/08/13 11:17:21;;;;;;;0.10;0.10;;;;;;;33.73;20.91;101125.38;5083537;28;20421;-71
2022/08/13 11:19:48;;;;;;;0.20;0.20;;;;;;;33.43;21.50;101123.75;5068037;28;20035;-71
2022/08/13 11:22:15;;;;;;;0.13;0.13;;;;;;;33.34;21.41;101125.50;5087229;28;20032;-72
2022/08/13 11:24:41;;;;;;;0.10;0.10;;;;;;;33.23;21.70;101126.53;5086872;28;20024;-70
2022/08/13 11:27:06;;;;;;;0.10;0.10;;;;;;;33.29;21.33;101125.94;5086943;28;20096;-71
2022/08/13 11:29:32;;;;;;;0.03;0.03;;;;;;;32.98;20.96;101134.16;5087030;28;20084;-71
2022/08/13 11:31:57;;;;;;;0.35;0.30;;;;;;;32.09;22.37;101129.56;5086805;28;20020;-71
2022/08/13 11:34:25;;;;;;;0.10;0.10;;;;;;;31.29;23.14;101136.38;5069168;28;20035;-70
2022/08/13 11:36:51;;;;;;;0.10;0.10;;;;;;;30.57;24.63;101132.53;5087064;28;20024;-70
2022/08/13 11:39:16;;;;;;;0.43;0.43;;;;;;;29.84;25.15;101132.03;5086545;28;20382;-70
2022/08/13 11:41:41;;;;;;;0.80;0.80;;;;;;;29.42;25.85;101141.47;5086711;28;20025;-70
2022/08/13 11:44:07;;;;;;;0.10;0.10;;;;;;;29.00;26.54;101127.72;5086464;28;20076;-69
2022/08/13 11:46:32;;;;;;;0.10;0.10;;;;;;;28.62;26.98;101130.47;5086447;28;20311;-70